Time;durP1;ratioP1;P1;durP2;ratioP2;P2;SDS_P1;SDS_P2;PMS_P1;PMS_P2;Temp;Humidity;BMP_temperature;BMP_pressure;BME280_temperature;BME280_humidity;BME280_pressure;Samples;Min_cycle;Max_cycle;Signal;HPM_P1;HPM_P2
2023/06/04 00:00:29;;;;;;;5.35;2.60;;;15.60;52.40;;;15.00;42.84;101027.41;5005268;28;20121;-78
2023/06/04 00:02:56;;;;;;;5.68;2.78;;;15.50;52.50;;;14.96;43.10;101031.59;4990441;28;20152;-78
2023/06/04 00:05:25;;;;;;;5.88;2.92;;;15.50;52.80;;;14.93;43.03;101027.47;4999652;28;20119;-79
2023/06/04 00:07:52;;;;;;;6.57;2.83;;;15.40;52.80;;;14.89;42.98;101023.63;5004178;28;20046;-79
2023/06/04 00:10:19;;;;;;;5.03;2.50;;;15.40;52.80;;;14.86;42.91;101030.25;5011147;28;20516;-79
2023/06/04 00:12:47;;;;;;;4.95;2.40;;;15.40;52.80;;;14.86;42.78;101024.88;5011459;28;20129;-78
2023/06/04 00:15:16;;;;;;;8.73;2.63;;;15.40;52.70;;;14.87;42.32;101023.84;4997884;28;20038;-78
2023/06/04 00:17:43;;;;;;;5.43;2.15;;;15.40;52.10;;;14.87;42.49;101029.22;5012028;28;20049;-79
2023/06/04 00:20:12;;;;;;;6.70;2.92;;;15.40;52.20;;;14.85;42.58;101020.56;5011582;28;20120;-79
2023/06/04 00:22:41;;;;;;;6.20;2.70;;;15.30;52.60;;;14.83;43.06;101011.91;5010836;28;20141;-79
2023/06/04 00:25:09;;;;;;;4.70;2.50;;;15.30;52.80;;;14.82;42.75;101021.00;5011619;28;20116;-79
2023/06/04 00:27:36;;;;;;;5.75;2.38;;;15.30;52.90;;;14.81;43.15;101018.56;5011992;28;20053;-79
2023/06/04 00:30:05;;;;;;;6.97;2.50;;;15.30;53.10;;;14.80;43.25;101016.94;5011445;28;20538;-79
2023/06/04 00:32:34;;;;;;;5.72;2.40;;;15.30;53.20;;;14.80;43.16;101019.63;5006271;28;20056;-80
2023/06/04 00:35:01;;;;;;;4.53;2.22;;;15.30;53.10;;;14.78;43.01;101029.75;5009506;28;20140;-79
2023/06/04 00:37:29;;;;;;;5.60;2.30;;;15.30;53.00;;;14.76;43.35;101029.16;5011326;28;20049;-80
2023/06/04 00:39:57;;;;;;;5.07;2.50;;;15.20;53.20;;;14.73;43.28;101027.72;5010181;28;20531;-79
2023/06/04 00:42:24;;;;;;;4.78;2.15;;;15.20;53.30;;;14.68;43.29;101020.34;5002367;28;20153;-78
2023/06/04 00:44:51;;;;;;;5.82;2.67;;;15.20;53.20;;;14.70;43.22;101022.00;4996929;28;20041;-79
2023/06/04 00:47:21;;;;;;;5.20;2.20;;;15.20;53.30;;;14.67;43.45;101034.81;5012154;28;20042;-78
2023/06/04 00:49:50;;;;;;;5.68;2.30;;;15.20;53.50;;;14.63;43.50;101032.81;4992813;28;20047;-79
2023/06/04 00:52:19;;;;;;;6.00;2.40;;;15.20;53.70;;;14.60;44.00;101031.41;5008827;28;20053;-80
2023/06/04 00:54:46;;;;;;;5.30;2.60;;;15.10;54.20;;;14.57;43.98;101031.03;4991866;28;20475;-78
2023/06/04 00:57:13;;;;;;;5.43;2.05;;;15.00;54.10;;;14.55;43.13;101033.13;5011111;28;20411;-78
2023/06/04 00:59:42;;;;;;;5.00;2.22;;;15.00;53.20;;;14.52;42.23;101031.69;5011967;28;20137;-78
2023/06/04 01:02:14;;;;;;;5.03;2.65;;;15.00;52.40;;;14.55;42.31;101033.13;5011119;28;20038;-78
2023/06/04 01:04:52;;;;;;;6.38;2.30;;;15.00;52.30;;;14.59;42.02;101027.09;5007478;28;20041;-79
2023/06/04 01:07:20;;;;;;;5.38;2.03;;;15.00;52.20;;;14.61;42.12;101029.53;4994308;28;20064;-80
2023/06/04 01:09:48;;;;;;;5.57;2.30;;;15.00;52.10;;;14.64;42.25;101034.44;4992298;28;20056;-80
2023/06/04 01:12:15;;;;;;;6.35;2.05;;;15.10;52.30;;;14.67;42.34;101029.44;5011046;28;20071;-78
2023/06/04 01:14:44;;;;;;;4.95;2.45;;;15.10;52.50;;;14.68;42.58;101033.78;4988857;28;20069;-80
2023/06/04 01:17:18;;;;;;;5.78;2.00;;;15.20;52.80;;;14.72;42.80;101026.09;5006951;28;20486;-78
2023/06/04 01:20:19;;;;;;;7.60;2.10;;;15.20;52.60;;;14.71;42.99;101029.84;5010954;28;20113;-79
2023/06/04 01:23:06;;;;;;;4.82;2.10;;;15.20;53.00;;;14.72;43.14;101025.28;5003827;28;20061;-78
2023/06/04 01:25:38;;;;;;;5.78;2.45;;;15.20;53.40;;;14.71;43.22;101034.38;4993273;28;20076;-79
2023/06/04 01:28:07;;;;;;;6.35;2.15;;;15.20;53.40;;;14.69;43.40;101034.63;5011343;28;20401;-80
2023/06/04 01:30:42;;;;;;;6.55;2.22;;;15.20;53.50;;;14.67;43.74;101040.19;5008382;28;20677;-79
2023/06/04 01:33:12;;;;;;;5.80;2.50;;;15.20;53.80;;;14.66;43.45;101043.94;5003248;28;20046;-78
2023/06/04 01:35:41;;;;;;;5.60;2.15;;;15.20;54.10;;;14.64;43.23;101039.81;5009732;28;20053;-79
2023/06/04 01:38:09;;;;;;;4.55;2.10;;;15.20;53.50;;;14.64;44.24;101037.97;5009814;28;20132;-78
2023/06/04 01:40:36;;;;;;;4.85;2.30;;;15.10;54.40;;;14.63;43.99;101040.84;4993152;28;20869;-78
2023/06/04 01:43:04;;;;;;;6.80;2.10;;;15.10;54.20;;;14.62;44.02;101036.53;4992084;28;20140;-79
2023/06/04 01:45:31;;;;;;;4.40;2.20;;;15.10;54.10;;;14.62;44.14;101037.34;4984656;28;20511;-78
2023/06/04 01:47:59;;;;;;;4.70;2.05;;;15.10;54.30;;;14.63;44.31;101040.84;4991022;28;20046;-81
2023/06/04 01:50:26;;;;;;;6.55;2.40;;;15.10;54.60;;;14.60;44.34;101030.59;5007939;28;20057;-78
2023/06/04 01:52:55;;;;;;;4.25;2.10;;;15.10;54.60;;;14.60;44.35;101022.53;5004596;28;20058;-80
2023/06/04 01:55:24;;;;;;;3.80;1.80;;;15.10;54.90;;;14.60;44.41;101033.28;5000937;28;20046;-79
2023/06/04 01:57:52;;;;;;;4.85;2.20;;;15.10;54.80;;;14.61;44.29;101024.16;5008824;28;20034;-79
2023/06/04 02:00:19;;;;;;;5.35;2.25;;;15.10;54.70;;;14.61;44.56;101022.31;5003831;28;20057;-78
2023/06/04 02:02:47;;;;;;;8.02;2.25;;;15.10;54.80;;;14.60;44.92;101022.53;4987772;28;20044;-79
2023/06/04 02:05:16;;;;;;;7.47;2.20;;;15.10;55.20;;;14.60;44.61;101022.53;5006458;28;20053;-78
2023/06/04 02:07:47;;;;;;;5.82;2.58;;;15.10;55.00;;;14.60;44.58;101023.34;4992646;28;20084;-78
2023/06/04 02:10:17;;;;;;;;;;;15.10;55.30;;;14.60;45.21;101022.53;4989825;28;20042;-78
2023/06/04 02:12:56;;;;;;;3.67;1.75;;;15.10;55.00;;;14.55;45.70;101027.75;5000303;28;19925;-79
2023/06/04 02:15:25;;;;;;;5.75;2.40;;;15.00;55.80;;;14.51;46.13;101037.28;4992544;28;20053;-78
2023/06/04 02:17:58;;;;;;;3.90;2.03;;;15.00;56.10;;;14.45;46.22;101035.47;4993198;28;20399;-79
2023/06/04 02:20:25;;;;;;;4.75;2.35;;;15.00;56.30;;;14.39;46.22;101037.97;5010469;28;20077;-78
2023/06/04 02:22:54;;;;;;;4.28;2.20;;;14.90;56.60;;;14.32;46.31;101047.97;5007349;28;20050;-78
2023/06/04 02:25:23;;;;;;;4.18;2.05;;;14.90;56.50;;;14.28;46.18;101037.91;4990940;28;20054;-78
2023/06/04 02:27:50;;;;;;;6.68;2.10;;;14.80;56.30;;;14.24;46.30;101036.69;4989749;28;20050;-78
2023/06/04 02:30:17;;;;;;;6.05;2.08;;;14.70;56.50;;;14.17;46.64;101034.91;5004080;28;20078;-79
2023/06/04 02:32:45;;;;;;;6.35;2.20;;;14.70;56.90;;;14.14;46.84;101040.69;5009019;28;20050;-79
2023/06/04 02:35:12;;;;;;;5.60;1.98;;;14.70;57.30;;;14.08;47.06;101032.72;4990630;28;20045;-79
2023/06/04 02:37:39;;;;;;;5.20;2.20;;;14.60;57.50;;;14.05;46.99;101035.84;4983399;28;20060;-78
2023/06/04 02:40:08;;;;;;;3.78;2.10;;;14.60;57.40;;;13.99;47.05;101042.09;5009714;28;20145;-78
2023/06/04 02:42:37;;;;;;;4.55;2.15;;;14.50;57.70;;;13.95;47.41;101043.56;5006583;28;20056;-78
2023/06/04 02:45:06;;;;;;;5.97;2.38;;;14.50;58.00;;;13.91;47.65;101043.19;4999388;28;20049;-78
2023/06/04 02:47:33;;;;;;;5.43;1.95;;;14.40;58.10;;;13.86;47.65;101048.41;4990484;28;20042;-80
2023/06/04 02:50:01;;;;;;;4.03;2.20;;;14.40;58.40;;;13.82;47.73;101042.66;5012811;28;20463;-80
2023/06/04 02:52:30;;;;;;;4.45;2.30;;;14.40;58.50;;;13.76;47.80;101043.53;5008537;28;20077;-80
2023/06/04 02:54:57;;;;;;;6.00;2.08;;;14.30;58.70;;;13.73;47.92;101043.94;5006842;28;20046;-78
2023/06/04 02:57:24;;;;;;;4.82;2.30;;;14.30;58.80;;;13.67;48.08;101039.47;5009830;28;20045;-78
2023/06/04 02:59:55;;;;;;;7.05;2.50;;;14.20;59.20;;;13.63;48.35;101047.13;5001030;28;20108;-79
2023/06/04 03:02:22;;;;;;;4.45;2.15;;;14.20;59.20;;;13.59;48.47;101047.75;4991088;28;20498;-78
2023/06/04 03:04:50;;;;;;;4.30;2.33;;;14.10;59.50;;;13.54;48.77;101045.72;5042784;22;20087;-73
2023/06/04 03:07:20;;;;;;;5.60;2.22;;;14.10;59.80;;;13.49;48.68;101052.78;5012546;28;20034;-74
2023/06/04 03:09:47;;;;;;;4.72;2.25;;;14.00;59.90;;;13.47;48.77;101054.84;5028675;28;20091;-74
2023/06/04 03:12:15;;;;;;;5.28;2.03;;;14.00;60.00;;;13.42;48.96;101039.44;5009817;28;20060;-74
2023/06/04 03:14:42;;;;;;;6.82;2.20;;;13.90;60.00;;;13.37;49.09;101053.47;5023163;28;20046;-74
2023/06/04 03:17:11;;;;;;;4.63;2.10;;;13.90;60.30;;;13.35;49.26;101046.69;5024986;28;20125;-73
2023/06/04 03:19:40;;;;;;;6.57;2.08;;;13.90;60.60;;;13.30;49.20;101050.00;5008029;28;20140;-74
2023/06/04 03:22:09;;;;;;;5.32;2.35;;;13.80;60.50;;;13.27;49.40;101050.41;5028331;28;20496;-73
2023/06/04 03:24:41;;;;;;;6.25;2.28;;;13.80;60.80;;;13.24;49.31;101056.22;5024834;28;20037;-73
2023/06/04 03:27:11;;;;;;;4.95;2.30;;;13.80;60.80;;;13.23;49.47;101051.91;5009342;28;20131;-74
2023/06/04 03:29:41;;;;;;;6.60;2.50;;;13.80;61.10;;;13.21;49.70;101053.09;5008419;28;20409;-73
2023/06/04 03:32:12;;;;;;;4.53;2.00;;;13.70;61.30;;;13.17;49.83;101050.03;5010439;28;20046;-73
2023/06/04 03:34:40;;;;;;;5.15;2.15;;;13.70;61.50;;;13.14;50.02;101051.28;5013098;28;20693;-75
2023/06/04 03:37:07;;;;;;;4.70;2.50;;;13.70;61.60;;;13.11;50.09;101057.06;5011099;28;20049;-75
2023/06/04 03:39:35;;;;;;;4.93;2.15;;;13.70;61.90;;;13.09;50.19;101050.28;5000070;28;20104;-75
2023/06/04 03:42:05;;;;;;;5.47;2.20;;;13.60;61.80;;;13.08;50.47;101051.34;5003044;28;20059;-75
2023/06/04 03:44:33;;;;;;;5.53;2.25;;;13.60;62.00;;;13.04;50.24;101058.97;5006844;28;20045;-75
2023/06/04 03:47:01;;;;;;;6.50;2.65;;;13.60;62.10;;;13.02;50.48;101054.84;5007963;28;20049;-75
2023/06/04 03:49:30;;;;;;;5.95;2.30;;;13.60;62.50;;;13.01;50.83;101062.06;5003535;28;20042;-75
2023/06/04 03:51:57;;;;;;;3.90;1.98;;;13.50;62.50;;;12.99;50.90;101057.97;5027525;28;20130;-75
2023/06/04 03:54:25;;;;;;;5.40;2.45;;;13.50;62.80;;;12.96;50.98;101055.69;5009853;28;20053;-75
2023/06/04 03:56:52;;;;;;;4.68;2.22;;;13.50;62.80;;;12.97;50.90;101065.38;5010322;28;20038;-75
2023/06/04 03:59:20;;;;;;;5.78;2.20;;;13.50;62.80;;;12.96;51.73;101061.88;5009723;28;20136;-74
2023/06/04 04:01:48;;;;;;;4.18;2.30;;;13.50;63.40;;;12.96;51.56;101058.38;5005486;28;20049;-75
2023/06/04 04:04:16;;;;;;;4.70;2.33;;;13.50;63.60;;;12.95;51.50;101054.88;5023902;28;20056;-75
2023/06/04 04:06:44;;;;;;;4.15;2.10;;;13.50;63.60;;;12.96;51.62;101050.34;5027175;28;20108;-75
2023/06/04 04:09:12;;;;;;;4.60;2.35;;;13.50;63.80;;;12.96;51.47;101055.69;5002362;28;20517;-75
2023/06/04 04:11:40;;;;;;;4.47;2.13;;;13.50;63.80;;;12.96;52.18;101048.47;5009029;28;20038;-75
2023/06/04 04:14:07;;;;;;;5.22;2.40;;;13.50;64.30;;;12.99;52.31;101058.78;5009130;28;20058;-75
2023/06/04 04:16:35;;;;;;;6.47;2.25;;;13.50;64.40;;;12.99;52.52;101056.09;5009534;28;20160;-75
2023/06/04 04:19:02;;;;;;;4.78;2.63;;;13.50;64.80;;;12.99;52.51;101057.97;5009257;28;20072;-75
2023/06/04 04:21:30;;;;;;;5.60;2.20;;;13.50;64.80;;;13.00;52.60;101054.25;5008573;28;20061;-75
2023/06/04 04:23:58;;;;;;;6.18;2.30;;;13.50;64.80;;;13.04;52.37;101063.50;5027963;28;20041;-75
2023/06/04 04:26:27;;;;;;;4.70;2.00;;;13.50;64.70;;;13.07;52.66;101058.53;5009197;28;20725;-75
2023/06/04 04:28:57;;;;;;;4.82;2.00;;;13.60;64.80;;;13.11;52.89;101057.06;5008492;28;20057;-75
2023/06/04 04:31:27;;;;;;;4.15;1.98;;;13.60;65.00;;;13.17;52.77;101051.88;5024889;28;20045;-75
2023/06/04 04:33:56;;;;;;;7.25;2.70;;;13.70;65.00;;;13.27;52.57;101054.94;5005753;28;20053;-72
2023/06/04 04:36:24;;;;;;;6.60;2.65;;;13.80;64.40;;;13.39;52.95;101055.94;5009337;28;20088;-75
2023/06/04 04:38:53;;;;;;;6.85;2.40;;;13.90;65.30;;;13.52;52.50;101052.34;5007940;28;20037;-75
2023/06/04 04:41:23;;;;;;;7.13;3.05;;;14.00;64.80;;;13.65;52.05;101050.38;5007261;28;20152;-74
2023/06/04 04:43:54;;;;;;;5.38;2.40;;;14.10;64.80;;;13.82;51.56;101057.91;5004884;28;20041;-74
2023/06/04 04:46:26;;;;;;;6.60;2.60;;;14.30;64.40;;;13.99;51.88;101053.63;5008968;28;20045;-74
2023/06/04 04:48:54;;;;;;;6.95;3.40;;;14.40;65.00;;;14.17;51.51;101055.56;5008222;28;20525;-74
2023/06/04 04:51:22;;;;;;;9.18;3.20;;;14.60;64.40;;;14.30;51.44;101050.06;5026070;28;20045;-75
2023/06/04 04:53:49;;;;;;;5.70;3.15;;;14.70;64.20;;;14.47;51.37;101052.16;5008503;28;20147;-74
2023/06/04 04:56:17;;;;;;;6.47;3.40;;;14.90;64.10;;;14.62;50.88;101050.78;5010998;28;20045;-74
2023/06/04 04:58:50;;;;;;;6.32;3.90;;;15.00;63.60;;;14.79;50.11;101050.19;5006107;28;20069;-75
2023/06/04 05:01:18;;;;;;;7.53;3.80;;;15.20;62.60;;;14.97;50.14;101050.16;5009073;28;20049;-75
2023/06/04 05:03:46;;;;;;;7.30;3.63;;;15.40;62.60;;;15.13;49.14;101057.63;5013870;28;20049;-75
2023/06/04 05:06:15;;;;;;;8.27;4.00;;;15.50;61.40;;;15.29;49.13;101052.66;5009374;28;20053;-75
2023/06/04 05:08:43;;;;;;;7.53;3.95;;;15.70;61.40;;;15.42;49.13;101058.66;5031033;28;20037;-75
2023/06/04 05:11:10;;;;;;;10.43;3.97;;;15.90;61.40;;;15.55;48.17;101056.81;5029251;28;20572;-74
2023/06/04 05:13:38;;;;;;;6.53;3.33;;;16.00;60.00;;;15.68;48.13;101054.78;5013410;28;20049;-74
2023/06/04 05:16:08;;;;;;;8.65;3.10;;;16.20;59.90;;;15.81;47.72;101061.84;5012758;28;20053;-75
2023/06/04 05:18:40;;;;;;;6.07;3.35;;;16.20;59.20;;;15.91;48.49;101054.03;5005925;28;20761;-75
2023/06/04 05:21:08;;;;;;;10.35;3.33;;;16.40;60.40;;;16.03;47.80;101059.41;5012498;28;20057;-75
2023/06/04 05:23:42;;;;;;;6.03;2.97;;;16.50;59.60;;;16.16;46.68;101055.69;5012351;28;20152;-75
2023/06/04 05:26:09;;;;;;;8.05;3.00;;;16.70;57.90;;;16.25;45.89;101048.91;5012013;28;20120;-75
2023/06/04 05:28:38;;;;;;;5.57;2.92;;;16.70;56.90;;;16.35;46.14;101046.44;5008595;28;20045;-75
2023/06/04 05:31:08;;;;;;;9.98;3.40;;;16.80;57.10;;;16.47;46.15;101060.69;5012175;28;20050;-75
2023/06/04 05:33:36;;;;;;;6.47;2.67;;;17.00;57.10;;;16.59;46.06;101055.31;5012952;28;20454;-75
2023/06/04 05:36:08;;;;;;;5.93;2.65;;;17.10;56.80;;;16.69;45.25;101044.75;5001582;28;20176;-75
2023/06/04 05:38:42;;;;;;;11.43;2.55;;;17.20;56.30;;;16.77;44.38;101048.97;5011720;28;20410;-75
2023/06/04 05:41:12;;;;;;;7.68;2.85;;;17.30;55.50;;;16.85;44.45;101056.69;5010090;28;20497;-75
2023/06/04 05:43:40;;;;;;;6.35;2.85;;;17.40;55.50;;;16.93;44.50;101053.63;5008382;28;20053;-75
2023/06/04 05:46:10;;;;;;;5.45;2.90;;;17.50;55.50;;;17.07;44.21;101054.13;5012732;28;20134;-75
2023/06/04 05:48:39;;;;;;;5.78;3.15;;;17.60;55.00;;;17.17;44.00;101057.03;5008877;28;20049;-75
2023/06/04 05:51:06;;;;;;;5.25;2.88;;;17.70;54.70;;;17.25;43.76;101067.44;5012262;28;20596;-75
2023/06/04 05:53:34;;;;;;;17.48;3.47;;;17.70;54.50;;;17.33;42.51;101060.84;5003559;28;20045;-75
2023/06/04 05:56:01;;;;;;;5.68;3.00;;;17.80;53.00;;;17.41;43.10;101068.53;5026605;28;20053;-75
2023/06/04 05:58:28;;;;;;;6.50;3.40;;;17.90;53.80;;;17.47;43.75;101064.91;5012230;28;20497;-75
2023/06/04 06:00:55;;;;;;;6.07;2.85;;;18.00;54.60;;;17.55;43.19;101063.66;5012475;28;20381;-74
2023/06/04 06:03:24;;;;;;;8.77;2.55;;;18.10;54.00;;;17.64;43.21;101067.59;5009944;28;20357;-75
2023/06/04 06:05:51;;;;;;;7.15;2.80;;;18.10;53.70;;;17.73;43.33;101076.16;5028802;28;20041;-74
2023/06/04 06:08:19;;;;;;;6.47;2.90;;;18.20;53.90;;;17.82;42.95;101080.09;5007000;28;20033;-73
2023/06/04 06:10:47;;;;;;;7.18;2.70;;;18.30;53.40;;;17.89;42.40;101072.63;5008459;28;20410;-75
2023/06/04 06:13:15;;;;;;;5.13;2.50;;;18.40;52.60;;;17.99;42.29;101067.41;5011980;28;20045;-75
2023/06/04 06:15:49;;;;;;;4.60;2.65;;;18.50;52.50;;;18.10;42.44;101075.66;5006927;28;20049;-75
2023/06/04 06:18:17;;;;;;;5.68;2.95;;;18.60;52.80;;;18.18;40.94;101073.38;4996662;28;20411;-75
2023/06/04 06:20:46;;;;;;;5.97;3.03;;;18.70;50.90;;;18.25;41.48;101074.03;5001768;28;20103;-75
2023/06/04 06:23:14;;;;;;;7.10;2.78;;;18.80;51.60;;;18.33;41.05;101072.78;5006445;28;20133;-75
2023/06/04 06:25:46;;;;;;;7.55;2.70;;;18.80;50.90;;;18.39;40.31;101079.88;5022615;28;20053;-75
2023/06/04 06:28:19;;;;;;;9.13;3.30;;;18.90;50.00;;;18.46;40.32;101085.13;5008142;28;20076;-75
2023/06/04 06:30:47;;;;;;;5.25;2.53;;;19.00;49.80;;;18.52;40.24;101082.25;5011197;28;20108;-79
2023/06/04 06:33:16;;;;;;;6.65;2.72;;;19.00;49.90;;;18.59;40.17;101083.94;5029551;28;20080;-78
2023/06/04 06:35:46;;;;;;;4.93;2.72;;;19.10;50.00;;;18.66;40.54;101081.91;5030276;28;20052;-77
2023/06/04 06:38:13;;;;;;;6.00;2.70;;;19.20;50.20;;;18.71;39.46;101082.81;5002835;28;20524;-78
2023/06/04 06:40:41;;;;;;;4.68;2.30;;;19.20;49.00;;;18.77;40.27;101084.50;5026547;28;20397;-78
2023/06/04 06:43:09;;;;;;;6.35;2.35;;;19.30;49.90;;;18.84;39.47;101081.63;5029268;28;20099;-78
2023/06/04 06:45:37;;;;;;;8.98;3.05;;;19.40;48.70;;;18.90;39.10;101087.91;5025240;28;20045;-76
2023/06/04 06:48:05;;;;;;;7.55;2.58;;;19.40;48.00;;;18.96;39.24;101085.00;5024412;28;20544;-78
2023/06/04 06:50:33;;;;;;;7.55;3.00;;;19.50;48.40;;;19.04;39.06;101084.56;5026108;28;20064;-78
2023/06/04 06:53:01;;;;;;;5.20;2.63;;;19.60;48.50;;;19.12;38.70;101080.59;5008888;28;20173;-78
2023/06/04 06:55:29;;;;;;;6.55;2.53;;;19.60;47.60;;;19.14;37.38;101080.38;5026751;28;20095;-78
2023/06/04 06:57:56;;;;;;;5.85;2.85;;;19.70;46.50;;;19.18;37.99;101089.56;5025662;28;20045;-79
2023/06/04 07:00:23;;;;;;;5.95;2.40;;;19.80;47.20;;;19.25;37.86;101087.50;5026398;28;20038;-79
2023/06/04 07:02:50;;;;;;;4.65;2.28;;;19.80;46.50;;;19.30;38.04;101084.88;5025562;28;20048;-79
2023/06/04 07:05:18;;;;;;;5.63;2.35;;;19.90;46.70;;;19.38;37.97;101087.13;5026827;28;20053;-79
2023/06/04 07:07:46;;;;;;;6.35;2.22;;;19.90;46.50;;;19.47;37.69;101082.91;5021060;28;20037;-79
2023/06/04 07:10:15;;;;;;;5.18;2.20;;;20.00;46.20;;;19.54;37.32;101091.59;5027913;28;20152;-78
2023/06/04 07:12:42;;;;;;;6.50;2.40;;;20.10;46.10;;;19.61;36.84;101087.91;5023957;28;20128;-79
2023/06/04 07:15:10;;;;;;;3.75;1.77;;;20.10;45.60;;;19.66;36.32;101082.53;5022041;28;20048;-79
2023/06/04 07:17:37;;;;;;;8.30;2.40;;;20.20;44.60;;;19.70;37.03;101087.19;5027627;28;20045;-79
2023/06/04 07:20:08;;;;;;;5.05;2.50;;;20.30;45.30;;;19.75;36.65;101089.94;5021714;28;20051;-79
2023/06/04 07:22:35;;;;;;;4.97;1.90;;;20.30;45.30;;;19.80;36.62;101087.28;5023134;28;20069;-79
2023/06/04 07:25:03;;;;;;;4.55;2.05;;;20.40;45.20;;;19.88;35.64;101086.00;5026249;28;20041;-79
2023/06/04 07:27:32;;;;;;;7.07;2.08;;;20.40;43.50;;;19.92;36.08;101092.53;5028383;28;20041;-79
2023/06/04 07:30:00;;;;;;;4.40;2.00;;;20.50;44.30;;;19.96;34.67;101098.22;5025919;28;20045;-77
2023/06/04 07:32:27;;;;;;;6.72;2.40;;;20.50;42.70;;;20.02;35.15;101091.81;5022477;28;20124;-77
2023/06/04 07:34:54;;;;;;;5.97;2.00;;;20.60;42.70;;;20.06;35.05;101101.84;5025312;28;20150;-79
2023/06/04 07:37:21;;;;;;;10.00;1.88;;;20.60;42.30;;;20.10;33.91;101095.91;5022667;28;20056;-77
2023/06/04 07:39:49;;;;;;;5.72;1.95;;;20.70;41.40;;;20.14;34.09;101086.19;5027653;28;20554;-78
2023/06/04 07:42:16;;;;;;;5.85;1.70;;;20.80;41.10;;;20.21;34.14;101092.22;5021273;28;20041;-78
2023/06/04 07:44:45;;;;;;;6.40;1.60;;;20.80;41.80;;;20.26;34.58;101100.38;5020416;28;20042;-77
2023/06/04 07:47:12;;;;;;;3.33;1.48;;;20.80;42.10;;;20.30;33.56;101101.47;5024931;28;20045;-78
2023/06/04 07:49:39;;;;;;;4.80;1.77;;;20.90;40.50;;;20.29;32.02;101095.22;5026316;28;20040;-78
2023/06/04 07:52:08;;;;;;;6.72;2.13;;;20.90;38.90;;;20.33;32.69;101098.25;5025762;28;20064;-78
2023/06/04 07:54:35;;;;;;;4.55;2.13;;;20.90;39.70;;;20.38;34.15;101101.00;5024306;28;20177;-78
2023/06/04 07:57:02;;;;;;;4.93;1.67;;;21.00;41.20;;;20.45;32.73;101098.06;5028087;28;20666;-78
2023/06/04 07:59:30;;;;;;;4.53;1.88;;;21.00;39.60;;;20.52;32.57;101094.06;5025713;28;20068;-78
2023/06/04 08:01:59;;;;;;;8.05;2.20;;;21.10;39.30;;;20.57;31.85;101088.69;5026295;28;20053;-78
2023/06/04 08:04:26;;;;;;;4.38;2.10;;;21.20;38.40;;;20.58;32.62;101094.91;5009808;28;20132;-78
2023/06/04 08:07:09;;;;;;;5.20;1.90;;;21.20;39.00;;;20.63;32.09;101094.94;5027057;28;20076;-76
2023/06/04 08:09:36;;;;;;;7.13;2.30;;;21.20;38.80;;;20.63;31.65;101086.81;5008095;28;20041;-78
2023/06/04 08:12:03;;;;;;;6.70;2.03;;;21.20;38.10;;;20.70;34.59;101094.72;5026661;28;20116;-78
2023/06/04 08:14:31;;;;;;;5.53;2.10;;;21.30;41.60;;;20.77;33.53;101095.28;5026513;28;20863;-78
2023/06/04 08:17:00;;;;;;;4.57;2.35;;;21.40;40.40;;;20.78;32.78;101092.31;5025015;28;20049;-76
2023/06/04 08:19:27;;;;;;;4.70;2.45;;;21.40;39.00;;;20.83;32.95;101086.91;5016928;28;21597;-78
2023/06/04 08:21:55;;;;;;;5.15;2.33;;;21.40;39.50;;;20.84;31.70;101087.75;5017020;28;20798;-78
2023/06/04 08:24:22;;;;;;;6.30;2.67;;;21.40;38.10;;;20.84;32.44;101090.44;5027569;28;20604;-78
2023/06/04 08:26:51;;;;;;;9.77;2.55;;;21.40;39.00;;;20.85;32.96;101089.38;5027268;28;20038;-77
2023/06/04 08:29:18;;;;;;;4.85;2.53;;;21.50;39.70;;;20.90;32.59;101091.28;5001769;28;20049;-77
2023/06/04 08:31:45;;;;;;;5.65;2.35;;;21.50;39.30;;;20.94;32.78;101101.34;5022679;28;20850;-77
2023/06/04 08:34:14;;;;;;;7.53;3.15;;;21.60;39.30;;;20.98;32.62;101097.00;5014114;28;20050;-77
2023/06/04 08:36:41;;;;;;;6.32;2.53;;;21.60;38.80;;;21.04;33.89;101097.84;4995126;28;20128;-77
2023/06/04 08:39:09;;;;;;;5.00;2.50;;;21.70;40.90;;;21.09;32.63;101098.69;5019413;28;20099;-77
2023/06/04 08:41:44;;;;;;;4.78;2.30;;;21.70;39.50;;;21.16;34.93;101098.44;5022002;28;20501;-77
2023/06/04 08:44:12;;;;;;;10.98;2.80;;;21.80;42.20;;;21.16;32.21;101086.75;5018475;28;20046;-77
2023/06/04 08:46:41;;;;;;;6.03;2.67;;;21.80;38.20;;;21.12;31.93;101096.50;5024670;28;20041;-78
2023/06/04 08:49:09;;;;;;;4.90;2.42;;;21.80;37.90;;;21.16;33.06;101092.19;5021179;28;20121;-78
2023/06/04 08:51:40;;;;;;;5.28;2.70;;;21.80;39.30;;;21.25;33.34;101096.00;5030891;28;20045;-78
2023/06/04 08:54:09;;;;;;;4.60;2.58;;;21.90;39.40;;;21.28;32.56;101096.31;5031848;28;20129;-78
2023/06/04 08:56:37;;;;;;;8.43;2.97;;;21.90;39.10;;;21.28;32.22;101090.88;5024151;28;20116;-78
2023/06/04 08:59:07;;;;;;;6.75;3.25;;;21.90;38.20;;;21.29;31.20;101094.41;5030985;28;20072;-78
2023/06/04 09:01:36;;;;;;;7.15;3.20;;;21.90;37.00;;;21.26;31.31;101087.59;5023476;28;20538;-77
2023/06/04 09:04:07;;;;;;;8.43;2.97;;;21.90;36.80;;;21.28;30.66;101090.88;5044345;22;20117;-93
2023/06/04 09:06:41;;;;;;;7.70;2.58;;;21.90;36.30;;;21.29;31.81;101097.13;5040234;28;20037;-90
2023/06/04 09:09:46;;;;;;;6.43;2.95;;;21.90;37.80;;;21.33;32.81;101095.53;5025593;28;20096;-94
2023/06/04 09:12:22;;;;;;;5.95;2.80;;;21.90;38.80;;;21.30;30.95;101091.44;5020560;28;20059;-96
2023/06/04 09:14:50;;;;;;;5.72;2.75;;;21.90;36.70;;;21.26;31.44;101092.22;5005060;28;20054;-88
2023/06/04 09:17:23;;;;;;;9.73;2.80;;;21.90;37.40;;;21.22;30.03;101089.22;5012213;28;20044;-87
2023/06/04 09:19:52;;;;;;;8.77;2.60;;;21.90;35.40;;;21.13;29.75;101100.84;5011036;28;20376;-86
2023/06/04 09:22:20;;;;;;;9.32;2.90;;;21.80;35.00;;;21.08;30.09;101102.50;5006930;28;20041;-89
2023/06/04 09:24:50;;;;;;;8.88;2.80;;;21.70;35.50;;;21.04;30.19;101095.13;5008752;28;20113;-88
2023/06/04 09:27:18;;;;;;;4.53;2.47;;;21.70;35.60;;;21.02;30.47;101095.38;5009486;28;20061;-89
2023/06/04 09:29:52;;;;;;;6.40;3.13;;;21.70;36.20;;;21.06;33.60;101107.34;5000814;28;20050;-89
2023/06/04 09:32:23;;;;;;;7.53;2.63;;;21.70;40.10;;;21.06;30.66;101096.50;5007859;28;20459;-87
2023/06/04 09:34:52;;;;;;;4.68;2.85;;;21.70;36.30;;;21.06;30.63;101090.25;5003739;28;20245;-88
2023/06/04 09:37:22;;;;;;;6.15;3.13;;;21.70;36.20;;;21.10;31.02;101096.78;5008464;28;20049;-87
2023/06/04 09:39:54;;;;;;;9.02;2.60;;;21.70;36.50;;;21.08;30.47;101091.63;5017552;28;20042;-88
2023/06/04 09:42:22;;;;;;;12.93;3.50;;;21.70;35.80;;;21.12;32.59;101093.78;5019613;28;20558;-87
2023/06/04 09:44:50;;;;;;;5.63;2.58;;;21.80;38.60;;;21.16;31.25;101095.72;4990737;28;21864;-88
2023/06/04 09:47:17;;;;;;;7.55;2.50;;;21.80;36.50;;;21.18;29.83;101098.16;4988038;28;20061;-91
2023/06/04 09:49:45;;;;;;;6.80;2.17;;;21.80;34.90;;;21.18;29.72;101090.00;5006877;28;20046;-83
2023/06/04 09:52:13;;;;;;;6.65;1.90;;;21.80;34.30;;;21.23;29.94;101095.47;5011210;28;20096;-83
2023/06/04 09:54:43;;;;;;;7.20;2.10;;;21.80;35.10;;;21.29;29.14;101105.25;5017605;28;20037;-84
2023/06/04 09:57:17;;;;;;;4.53;1.70;;;21.90;33.90;;;21.29;27.73;101097.94;5008253;28;20045;-84
2023/06/04 09:59:46;;;;;;;3.60;1.60;;;21.90;31.70;;;21.30;27.30;101093.31;5010228;28;20056;-85
2023/06/04 10:02:14;;;;;;;4.22;1.88;;;21.90;31.00;;;21.32;27.91;101091.16;5001373;28;20046;-84
2023/06/04 10:04:43;;;;;;;4.38;1.90;;;21.90;31.70;;;21.33;29.64;101096.34;5004457;28;20632;-85
2023/06/04 10:07:12;;;;;;;4.70;1.98;;;22.00;34.60;;;21.32;27.76;101097.41;5000877;28;20038;-83
2023/06/04 10:09:45;;;;;;;7.90;2.00;;;21.90;31.60;;;21.34;28.19;101097.16;5011079;28;20108;-85
2023/06/04 10:12:16;;;;;;;5.60;2.30;;;22.00;32.00;;;21.35;27.48;101090.66;4999492;28;20127;-84
2023/06/04 10:14:50;;;;;;;5.45;2.13;;;22.00;31.20;;;21.36;26.72;101089.56;5002422;28;20038;-85
2023/06/04 10:17:25;;;;;;;6.10;2.00;;;22.00;30.20;;;21.30;26.97;101083.31;5008864;28;20069;-83
2023/06/04 10:19:54;;;;;;;5.93;2.15;;;21.90;30.20;;;21.32;26.85;101091.16;5010570;28;20037;-79